sensor_id;sensor_type;location;lat;lon;timestamp;temperature;humidity
70830;SHT30;58451;51.550;7.208;2022-08-25T00:00:11;21.13;55.33
70830;SHT30;58451;51.550;7.208;2022-08-25T00:02:39;21.09;55.54
70830;SHT30;58451;51.550;7.208;2022-08-25T00:05:21;21.05;55.61
70830;SHT30;58451;51.550;7.208;2022-08-25T00:07:53;20.99;55.71
70830;SHT30;58451;51.550;7.208;2022-08-25T00:10:20;20.96;55.92
70830;SHT30;58451;51.550;7.208;2022-08-25T00:12:47;20.92;56.02
70830;SHT30;58451;51.550;7.208;2022-08-25T00:15:14;20.88;56.20
70830;SHT30;58451;51.550;7.208;2022-08-25T00:17:41;20.84;56.23
70830;SHT30;58451;51.550;7.208;2022-08-25T00:20:08;20.80;56.42
70830;SHT30;58451;51.550;7.208;2022-08-25T00:22:36;20.76;56.57
70830;SHT30;58451;51.550;7.208;2022-08-25T00:25:03;20.72;56.81
70830;SHT30;58451;51.550;7.208;2022-08-25T00:27:30;20.68;56.81
70830;SHT30;58451;51.550;7.208;2022-08-25T00:29:57;20.64;56.89
70830;SHT30;58451;51.550;7.208;2022-08-25T00:32:25;20.60;56.88
70830;SHT30;58451;51.550;7.208;2022-08-25T00:34:53;20.56;56.98
70830;SHT30;58451;51.550;7.208;2022-08-25T00:37:20;20.52;57.08
70830;SHT30;58451;51.550;7.208;2022-08-25T00:39:46;20.49;57.16
70830;SHT30;58451;51.550;7.208;2022-08-25T00:42:13;20.44;57.24
70830;SHT30;58451;51.550;7.208;2022-08-25T00:44:41;20.42;57.40
70830;SHT30;58451;51.550;7.208;2022-08-25T00:47:09;20.37;57.72
70830;SHT30;58451;51.550;7.208;2022-08-25T00:49:55;20.34;57.60
70830;SHT30;58451;51.550;7.208;2022-08-25T00:52:31;20.30;57.72
70830;SHT30;58451;51.550;7.208;2022-08-25T00:55:06;20.26;57.70
70830;SHT30;58451;51.550;7.208;2022-08-25T00:57:45;20.23;57.76
70830;SHT30;58451;51.550;7.208;2022-08-25T01:00:34;20.19;58.13
70830;SHT30;58451;51.550;7.208;2022-08-25T01:03:06;20.16;58.06
70830;SHT30;58451;51.550;7.208;2022-08-25T01:05:33;20.14;58.17
70830;SHT30;58451;51.550;7.208;2022-08-25T01:08:02;20.09;58.21
70830;SHT30;58451;51.550;7.208;2022-08-25T01:10:32;20.06;58.27
70830;SHT30;58451;51.550;7.208;2022-08-25T01:13:05;20.02;58.39
70830;SHT30;58451;51.550;7.208;2022-08-25T01:15:42;20.00;58.46
70830;SHT30;58451;51.550;7.208;2022-08-25T01:18:11;19.99;58.52
70830;SHT30;58451;51.550;7.208;2022-08-25T01:20:39;19.95;58.61
70830;SHT30;58451;51.550;7.208;2022-08-25T01:23:07;19.93;58.66
70830;SHT30;58451;51.550;7.208;2022-08-25T01:28:57;19.87;58.76
70830;SHT30;58451;51.550;7.208;2022-08-25T01:31:49;19.84;58.82
70830;SHT30;58451;51.550;7.208;2022-08-25T01:34:37;19.81;58.90
70830;SHT30;58451;51.550;7.208;2022-08-25T01:37:08;19.78;58.98
70830;SHT30;58451;51.550;7.208;2022-08-25T01:39:39;19.76;59.05
70830;SHT30;58451;51.550;7.208;2022-08-25T01:44:43;19.70;59.26
70830;SHT30;58451;51.550;7.208;2022-08-25T01:47:12;19.67;59.38
70830;SHT30;58451;51.550;7.208;2022-08-25T01:49:39;19.64;59.47
70830;SHT30;58451;51.550;7.208;2022-08-25T01:52:11;19.62;59.53
70830;SHT30;58451;51.550;7.208;2022-08-25T01:54:46;19.60;59.66
70830;SHT30;58451;51.550;7.208;2022-08-25T01:57:13;19.58;59.70
70830;SHT30;58451;51.550;7.208;2022-08-25T01:59:41;19.55;59.89
70830;SHT30;58451;51.550;7.208;2022-08-25T02:02:08;19.54;60.14
70830;SHT30;58451;51.550;7.208;2022-08-25T02:04:35;19.52;60.22
70830;SHT30;58451;51.550;7.208;2022-08-25T02:07:04;19.52;61.03
70830;SHT30;58451;51.550;7.208;2022-08-25T02:09:34;19.50;60.38
70830;SHT30;58451;51.550;7.208;2022-08-25T02:12:04;19.49;60.20
70830;SHT30;58451;51.550;7.208;2022-08-25T02:14:31;19.47;60.23
70830;SHT30;58451;51.550;7.208;2022-08-25T02:17:00;19.45;60.29
70830;SHT30;58451;51.550;7.208;2022-08-25T02:19:29;19.41;60.33
70830;SHT30;58451;51.550;7.208;2022-08-25T02:21:57;19.38;60.33
70830;SHT30;58451;51.550;7.208;2022-08-25T02:24:25;19.36;60.42
70830;SHT30;58451;51.550;7.208;2022-08-25T02:26:52;19.32;60.49
70830;SHT30;58451;51.550;7.208;2022-08-25T02:29:19;19.30;60.60
70830;SHT30;58451;51.550;7.208;2022-08-25T02:31:46;19.27;60.67
70830;SHT30;58451;51.550;7.208;2022-08-25T02:34:14;19.25;60.94
70830;SHT30;58451;51.550;7.208;2022-08-25T02:36:41;19.23;61.94
70830;SHT30;58451;51.550;7.208;2022-08-25T02:39:09;19.18;61.24
70830;SHT30;58451;51.550;7.208;2022-08-25T02:41:37;19.17;61.34
70830;SHT30;58451;51.550;7.208;2022-08-25T02:44:05;19.14;61.23
70830;SHT30;58451;51.550;7.208;2022-08-25T02:46:34;19.10;61.17
70830;SHT30;58451;51.550;7.208;2022-08-25T02:49:04;19.06;61.15
70830;SHT30;58451;51.550;7.208;2022-08-25T02:51:33;19.03;61.20
70830;SHT30;58451;51.550;7.208;2022-08-25T02:54:02;18.99;61.26
70830;SHT30;58451;51.550;7.208;2022-08-25T02:56:31;18.96;61.32
70830;SHT30;58451;51.550;7.208;2022-08-25T02:58:59;18.92;61.43
70830;SHT30;58451;51.550;7.208;2022-08-25T03:01:27;18.89;61.52
70830;SHT30;58451;51.550;7.208;2022-08-25T03:03:55;18.87;61.64
70830;SHT30;58451;51.550;7.208;2022-08-25T03:06:23;18.83;61.70
70830;SHT30;58451;51.550;7.208;2022-08-25T03:08:51;18.80;61.87
70830;SHT30;58451;51.550;7.208;2022-08-25T03:11:18;18.77;62.00
70830;SHT30;58451;51.550;7.208;2022-08-25T03:13:46;18.74;62.11
70830;SHT30;58451;51.550;7.208;2022-08-25T03:16:16;18.70;62.34
70830;SHT30;58451;51.550;7.208;2022-08-25T03:18:44;18.67;62.48
70830;SHT30;58451;51.550;7.208;2022-08-25T03:21:11;18.65;62.61
70830;SHT30;58451;51.550;7.208;2022-08-25T03:23:42;18.62;62.71
70830;SHT30;58451;51.550;7.208;2022-08-25T03:26:10;18.59;62.78
70830;SHT30;58451;51.550;7.208;2022-08-25T03:28:56;18.58;62.90
70830;SHT30;58451;51.550;7.208;2022-08-25T03:31:23;18.55;63.05
70830;SHT30;58451;51.550;7.208;2022-08-25T03:33:53;18.52;63.20
70830;SHT30;58451;51.550;7.208;2022-08-25T03:36:20;18.50;63.32
70830;SHT30;58451;51.550;7.208;2022-08-25T03:38:48;18.48;63.40
70830;SHT30;58451;51.550;7.208;2022-08-25T03:41:21;18.48;63.44
70830;SHT30;58451;51.550;7.208;2022-08-25T03:43:54;18.45;63.52
70830;SHT30;58451;51.550;7.208;2022-08-25T03:46:26;18.43;63.60
70830;SHT30;58451;51.550;7.208;2022-08-25T03:48:57;18.40;63.81
70830;SHT30;58451;51.550;7.208;2022-08-25T03:51:31;18.40;63.91
70830;SHT30;58451;51.550;7.208;2022-08-25T03:54:04;18.38;63.99
70830;SHT30;58451;51.550;7.208;2022-08-25T03:56:32;18.36;63.91
70830;SHT30;58451;51.550;7.208;2022-08-25T03:58:59;18.36;63.94
70830;SHT30;58451;51.550;7.208;2022-08-25T04:01:26;18.36;63.94
70830;SHT30;58451;51.550;7.208;2022-08-25T04:03:54;18.37;63.86
70830;SHT30;58451;51.550;7.208;2022-08-25T04:06:21;18.37;63.86
70830;SHT30;58451;51.550;7.208;2022-08-25T04:08:48;18.38;63.81
70830;SHT30;58451;51.550;7.208;2022-08-25T04:11:18;18.39;63.70
70830;SHT30;58451;51.550;7.208;2022-08-25T04:13:48;18.40;63.65
70830;SHT30;58451;51.550;7.208;2022-08-25T04:18:52;18.42;63.50
70830;SHT30;58451;51.550;7.208;2022-08-25T04:21:20;18.44;63.49
70830;SHT30;58451;51.550;7.208;2022-08-25T04:23:49;18.46;63.46
70830;SHT30;58451;51.550;7.208;2022-08-25T04:26:20;18.47;63.42
70830;SHT30;58451;51.550;7.208;2022-08-25T04:28:53;18.48;63.39
70830;SHT30;58451;51.550;7.208;2022-08-25T04:31:22;18.50;63.37
70830;SHT30;58451;51.550;7.208;2022-08-25T04:33:50;18.51;63.40
70830;SHT30;58451;51.550;7.208;2022-08-25T04:36:17;18.52;63.38
70830;SHT30;58451;51.550;7.208;2022-08-25T04:38:46;18.54;63.37
70830;SHT30;58451;51.550;7.208;2022-08-25T04:41:16;18.54;63.34
70830;SHT30;58451;51.550;7.208;2022-08-25T04:43:47;18.57;63.33
70830;SHT30;58451;51.550;7.208;2022-08-25T04:46:18;18.58;63.29
70830;SHT30;58451;51.550;7.208;2022-08-25T04:48:50;18.60;63.26
70830;SHT30;58451;51.550;7.208;2022-08-25T04:51:27;18.61;63.28
70830;SHT30;58451;51.550;7.208;2022-08-25T04:54:04;18.65;63.24
70830;SHT30;58451;51.550;7.208;2022-08-25T04:56:35;18.68;63.15
70830;SHT30;58451;51.550;7.208;2022-08-25T04:59:08;18.73;63.13
70830;SHT30;58451;51.550;7.208;2022-08-25T05:01:38;18.79;63.09
70830;SHT30;58451;51.550;7.208;2022-08-25T05:04:09;18.84;63.04
70830;SHT30;58451;51.550;7.208;2022-08-25T05:06:53;18.92;62.94
70830;SHT30;58451;51.550;7.208;2022-08-25T05:09:23;19.00;62.88
70830;SHT30;58451;51.550;7.208;2022-08-25T05:11:52;19.11;62.79
70830;SHT30;58451;51.550;7.208;2022-08-25T05:14:20;19.18;62.65
70830;SHT30;58451;51.550;7.208;2022-08-25T05:16:52;19.28;62.53
70830;SHT30;58451;51.550;7.208;2022-08-25T05:19:21;19.36;62.41
70830;SHT30;58451;51.550;7.208;2022-08-25T05:21:49;19.44;62.26
70830;SHT30;58451;51.550;7.208;2022-08-25T05:24:17;19.54;62.16
70830;SHT30;58451;51.550;7.208;2022-08-25T05:26:45;19.61;62.02
70830;SHT30;58451;51.550;7.208;2022-08-25T05:29:12;19.70;61.94
70830;SHT30;58451;51.550;7.208;2022-08-25T05:31:40;19.79;61.83
70830;SHT30;58451;51.550;7.208;2022-08-25T05:34:15;19.89;61.67
70830;SHT30;58451;51.550;7.208;2022-08-25T05:36:44;19.99;61.48
70830;SHT30;58451;51.550;7.208;2022-08-25T05:39:12;20.08;61.34
70830;SHT30;58451;51.550;7.208;2022-08-25T05:41:39;20.18;61.19
70830;SHT30;58451;51.550;7.208;2022-08-25T05:44:06;20.28;61.09
70830;SHT30;58451;51.550;7.208;2022-08-25T05:46:33;20.38;60.86
70830;SHT30;58451;51.550;7.208;2022-08-25T05:49:00;20.47;60.73
70830;SHT30;58451;51.550;7.208;2022-08-25T05:51:27;20.58;60.54
70830;SHT30;58451;51.550;7.208;2022-08-25T05:53:54;20.67;60.38
70830;SHT30;58451;51.550;7.208;2022-08-25T05:56:21;20.76;60.27
70830;SHT30;58451;51.550;7.208;2022-08-25T05:58:48;20.84;60.09
70830;SHT30;58451;51.550;7.208;2022-08-25T06:01:19;20.94;60.00
70830;SHT30;58451;51.550;7.208;2022-08-25T06:04:14;21.07;59.81
70830;SHT30;58451;51.550;7.208;2022-08-25T06:06:43;21.17;59.63
70830;SHT30;58451;51.550;7.208;2022-08-25T06:09:10;21.27;59.50
70830;SHT30;58451;51.550;7.208;2022-08-25T06:11:37;21.39;59.33
70830;SHT30;58451;51.550;7.208;2022-08-25T06:14:09;21.50;59.13
70830;SHT30;58451;51.550;7.208;2022-08-25T06:16:37;21.62;58.90
70830;SHT30;58451;51.550;7.208;2022-08-25T06:19:05;21.73;58.75
70830;SHT30;58451;51.550;7.208;2022-08-25T06:21:34;21.85;58.54
70830;SHT30;58451;51.550;7.208;2022-08-25T06:24:04;21.99;58.36
70830;SHT30;58451;51.550;7.208;2022-08-25T06:26:40;22.12;58.14
70830;SHT30;58451;51.550;7.208;2022-08-25T06:29:06;22.25;57.96
70830;SHT30;58451;51.550;7.208;2022-08-25T06:31:33;22.34;57.56
70830;SHT30;58451;51.550;7.208;2022-08-25T06:34:00;22.44;57.52
70830;SHT30;58451;51.550;7.208;2022-08-25T06:36:27;22.55;57.38
70830;SHT30;58451;51.550;7.208;2022-08-25T06:38:54;22.67;57.25
70830;SHT30;58451;51.550;7.208;2022-08-25T06:41:21;22.81;57.03
70830;SHT30;58451;51.550;7.208;2022-08-25T06:43:47;22.94;56.84
70830;SHT30;58451;51.550;7.208;2022-08-25T06:46:21;23.06;56.63
70830;SHT30;58451;51.550;7.208;2022-08-25T06:49:03;23.17;56.26
70830;SHT30;58451;51.550;7.208;2022-08-25T06:51:32;23.27;56.21
70830;SHT30;58451;51.550;7.208;2022-08-25T06:54:02;23.36;56.04
70830;SHT30;58451;51.550;7.208;2022-08-25T06:56:31;23.45;55.88
70830;SHT30;58451;51.550;7.208;2022-08-25T06:59:00;23.53;55.67
70830;SHT30;58451;51.550;7.208;2022-08-25T07:01:31;23.62;55.52
70830;SHT30;58451;51.550;7.208;2022-08-25T07:03:59;23.71;55.39
70830;SHT30;58451;51.550;7.208;2022-08-25T07:06:33;23.83;55.29
70830;SHT30;58451;51.550;7.208;2022-08-25T07:09:02;23.97;55.05
70830;SHT30;58451;51.550;7.208;2022-08-25T07:11:31;24.07;54.87
70830;SHT30;58451;51.550;7.208;2022-08-25T07:14:00;24.19;54.63
70830;SHT30;58451;51.550;7.208;2022-08-25T07:16:30;24.31;54.49
70830;SHT30;58451;51.550;7.208;2022-08-25T07:18:58;24.43;54.34
70830;SHT30;58451;51.550;7.208;2022-08-25T07:21:28;24.53;54.07
70830;SHT30;58451;51.550;7.208;2022-08-25T07:24:02;24.63;53.87
70830;SHT30;58451;51.550;7.208;2022-08-25T07:26:33;24.77;53.71
70830;SHT30;58451;51.550;7.208;2022-08-25T07:29:05;24.87;53.57
70830;SHT30;58451;51.550;7.208;2022-08-25T07:31:40;24.99;53.28
70830;SHT30;58451;51.550;7.208;2022-08-25T07:34:08;25.11;52.99
70830;SHT30;58451;51.550;7.208;2022-08-25T07:36:54;25.26;52.99
70830;SHT30;58451;51.550;7.208;2022-08-25T07:39:23;25.39;52.69
70830;SHT30;58451;51.550;7.208;2022-08-25T07:41:54;25.50;52.55
70830;SHT30;58451;51.550;7.208;2022-08-25T07:44:22;25.62;52.26
70830;SHT30;58451;51.550;7.208;2022-08-25T07:46:53;25.70;51.99
70830;SHT30;58451;51.550;7.208;2022-08-25T07:49:22;25.81;51.81
70830;SHT30;58451;51.550;7.208;2022-08-25T07:52:01;25.91;51.66
70830;SHT30;58451;51.550;7.208;2022-08-25T07:54:32;26.02;51.47
70830;SHT30;58451;51.550;7.208;2022-08-25T07:57:04;26.14;51.23
70830;SHT30;58451;51.550;7.208;2022-08-25T07:59:34;26.23;50.75
70830;SHT30;58451;51.550;7.208;2022-08-25T08:02:07;26.32;50.55
70830;SHT30;58451;51.550;7.208;2022-08-25T08:04:50;26.45;50.34
70830;SHT30;58451;51.550;7.208;2022-08-25T08:07:23;26.58;49.80
70830;SHT30;58451;51.550;7.208;2022-08-25T08:10:09;26.72;49.65
70830;SHT30;58451;51.550;7.208;2022-08-25T08:12:59;26.85;49.36
70830;SHT30;58451;51.550;7.208;2022-08-25T08:15:27;26.92;49.23
70830;SHT30;58451;51.550;7.208;2022-08-25T08:17:55;27.03;48.95
70830;SHT30;58451;51.550;7.208;2022-08-25T08:20:24;27.16;48.80
70830;SHT30;58451;51.550;7.208;2022-08-25T08:22:54;27.28;48.29
70830;SHT30;58451;51.550;7.208;2022-08-25T08:25:20;27.36;48.25
70830;SHT30;58451;51.550;7.208;2022-08-25T08:27:53;27.42;48.00
70830;SHT30;58451;51.550;7.208;2022-08-25T08:30:22;27.49;47.93
70830;SHT30;58451;51.550;7.208;2022-08-25T08:32:51;27.61;47.79
70830;SHT30;58451;51.550;7.208;2022-08-25T08:35:38;27.68;47.61
70830;SHT30;58451;51.550;7.208;2022-08-25T08:38:06;27.74;47.43
70830;SHT30;58451;51.550;7.208;2022-08-25T08:40:46;27.82;47.24
70830;SHT30;58451;51.550;7.208;2022-08-25T08:53:48;28.19;46.34
70830;SHT30;58451;51.550;7.208;2022-08-25T08:56:27;28.25;46.21
70830;SHT30;58451;51.550;7.208;2022-08-25T08:59:04;28.29;46.23
70830;SHT30;58451;51.550;7.208;2022-08-25T09:01:43;28.44;46.21
70830;SHT30;58451;51.550;7.208;2022-08-25T09:04:21;28.57;45.65
70830;SHT30;58451;51.550;7.208;2022-08-25T09:06:59;28.65;45.46
70830;SHT30;58451;51.550;7.208;2022-08-25T09:09:33;28.73;45.28
70830;SHT30;58451;51.550;7.208;2022-08-25T09:15:43;28.95;45.11
70830;SHT30;58451;51.550;7.208;2022-08-25T09:18:06;29.10;44.97
70830;SHT30;58451;51.550;7.208;2022-08-25T09:21:02;29.21;44.91
70830;SHT30;58451;51.550;7.208;2022-08-25T09:26:34;29.46;44.34
70830;SHT30;58451;51.550;7.208;2022-08-25T09:29:07;29.45;43.77
70830;SHT30;58451;51.550;7.208;2022-08-25T09:31:43;29.42;43.87
70830;SHT30;58451;51.550;7.208;2022-08-25T09:34:11;29.43;43.79
70830;SHT30;58451;51.550;7.208;2022-08-25T09:36:44;29.51;43.89
70830;SHT30;58451;51.550;7.208;2022-08-25T09:39:14;29.61;43.69
70830;SHT30;58451;51.550;7.208;2022-08-25T09:44:26;29.78;43.01
70830;SHT30;58451;51.550;7.208;2022-08-25T09:49:57;29.77;42.67
70830;SHT30;58451;51.550;7.208;2022-08-25T09:52:32;29.82;42.74
70830;SHT30;58451;51.550;7.208;2022-08-25T10:00:09;30.05;41.79
70830;SHT30;58451;51.550;7.208;2022-08-25T10:08:39;30.26;41.36
70830;SHT30;58451;51.550;7.208;2022-08-25T10:14:14;30.45;41.24
70830;SHT30;58451;51.550;7.208;2022-08-25T10:16:45;30.56;41.14
70830;SHT30;58451;51.550;7.208;2022-08-25T10:22:00;30.86;40.01
70830;SHT30;58451;51.550;7.208;2022-08-25T10:25:00;30.99;39.93
70830;SHT30;58451;51.550;7.208;2022-08-25T10:30:18;31.03;39.45
70830;SHT30;58451;51.550;7.208;2022-08-25T10:32:57;31.16;39.22
70830;SHT30;58451;51.550;7.208;2022-08-25T10:38:36;31.35;38.46
70830;SHT30;58451;51.550;7.208;2022-08-25T10:47:15;31.40;37.99
70830;SHT30;58451;51.550;7.208;2022-08-25T10:55:40;31.65;38.37
70830;SHT30;58451;51.550;7.208;2022-08-25T10:58:29;31.71;37.72
70830;SHT30;58451;51.550;7.208;2022-08-25T11:01:18;31.68;37.62
70830;SHT30;58451;51.550;7.208;2022-08-25T11:04:09;31.82;37.55
70830;SHT30;58451;51.550;7.208;2022-08-25T11:07:06;31.91;37.51
70830;SHT30;58451;51.550;7.208;2022-08-25T11:09:56;31.96;37.42
70830;SHT30;58451;51.550;7.208;2022-08-25T11:12:32;32.02;37.13
70830;SHT30;58451;51.550;7.208;2022-08-25T11:15:09;32.14;37.30
70830;SHT30;58451;51.550;7.208;2022-08-25T11:17:51;32.26;37.04
70830;SHT30;58451;51.550;7.208;2022-08-25T11:20:26;32.34;35.90
70830;SHT30;58451;51.550;7.208;2022-08-25T11:23:48;32.26;36.40
70830;SHT30;58451;51.550;7.208;2022-08-25T11:26:31;32.22;36.42
70830;SHT30;58451;51.550;7.208;2022-08-25T11:29:12;32.24;36.19
70830;SHT30;58451;51.550;7.208;2022-08-25T11:31:44;32.26;36.01
70830;SHT30;58451;51.550;7.208;2022-08-25T11:34:19;32.20;36.17
70830;SHT30;58451;51.550;7.208;2022-08-25T11:36:49;32.16;36.11
70830;SHT30;58451;51.550;7.208;2022-08-25T11:55:18;32.98;34.75
70830;SHT30;58451;51.550;7.208;2022-08-25T11:57:49;33.07;33.45
70830;SHT30;58451;51.550;7.208;2022-08-25T12:02:48;32.74;33.62
70830;SHT30;58451;51.550;7.208;2022-08-25T12:10:55;33.06;34.24
70830;SHT30;58451;51.550;7.208;2022-08-25T12:13:42;33.16;33.78
70830;SHT30;58451;51.550;7.208;2022-08-25T12:16:36;33.22;33.92
70830;SHT30;58451;51.550;7.208;2022-08-25T12:27:30;33.37;32.96
70830;SHT30;58451;51.550;7.208;2022-08-25T12:35:55;33.40;33.48
70830;SHT30;58451;51.550;7.208;2022-08-25T12:43:35;33.70;32.96
70830;SHT30;58451;51.550;7.208;2022-08-25T13:06:52;33.93;30.73
70830;SHT30;58451;51.550;7.208;2022-08-25T13:10:08;33.87;31.48
70830;SHT30;58451;51.550;7.208;2022-08-25T13:15:46;34.17;31.13
70830;SHT30;58451;51.550;7.208;2022-08-25T13:18:29;34.27;30.95
70830;SHT30;58451;51.550;7.208;2022-08-25T13:21:08;34.35;30.39
70830;SHT30;58451;51.550;7.208;2022-08-25T13:23:46;34.37;30.54
70830;SHT30;58451;51.550;7.208;2022-08-25T13:26:23;34.38;30.12
70830;SHT30;58451;51.550;7.208;2022-08-25T13:29:15;34.38;30.75
70830;SHT30;58451;51.550;7.208;2022-08-25T13:31:55;34.50;30.71
70830;SHT30;58451;51.550;7.208;2022-08-25T13:34:39;34.57;30.55
70830;SHT30;58451;51.550;7.208;2022-08-25T13:42:46;34.75;30.16
70830;SHT30;58451;51.550;7.208;2022-08-25T13:45:25;34.93;29.89
70830;SHT30;58451;51.550;7.208;2022-08-25T13:47:57;35.13;29.40
70830;SHT30;58451;51.550;7.208;2022-08-25T13:52:56;35.29;29.02
70830;SHT30;58451;51.550;7.208;2022-08-25T13:55:39;35.30;28.79
70830;SHT30;58451;51.550;7.208;2022-08-25T13:58:23;35.34;28.72
70830;SHT30;58451;51.550;7.208;2022-08-25T14:01:15;35.41;28.78
70830;SHT30;58451;51.550;7.208;2022-08-25T14:09:55;37.46;27.03
70830;SHT30;58451;51.550;7.208;2022-08-25T14:18:51;39.38;24.98
70830;SHT30;58451;51.550;7.208;2022-08-25T14:21:26;39.94;24.51
70830;SHT30;58451;51.550;7.208;2022-08-25T14:23:56;40.53;24.07
70830;SHT30;58451;51.550;7.208;2022-08-25T14:26:25;41.19;23.56
70830;SHT30;58451;51.550;7.208;2022-08-25T14:28:52;41.89;22.74
70830;SHT30;58451;51.550;7.208;2022-08-25T14:34:03;43.06;20.33
70830;SHT30;58451;51.550;7.208;2022-08-25T14:36:37;43.50;20.97
70830;SHT30;58451;51.550;7.208;2022-08-25T14:39:04;43.94;20.70
70830;SHT30;58451;51.550;7.208;2022-08-25T14:41:34;43.86;19.24
70830;SHT30;58451;51.550;7.208;2022-08-25T14:44:06;43.66;19.57
70830;SHT30;58451;51.550;7.208;2022-08-25T14:46:36;44.14;20.15
70830;SHT30;58451;51.550;7.208;2022-08-25T14:49:16;44.76;19.64
70830;SHT30;58451;51.550;7.208;2022-08-25T14:51:50;45.27;19.20
70830;SHT30;58451;51.550;7.208;2022-08-25T14:54:17;45.90;19.02
70830;SHT30;58451;51.550;7.208;2022-08-25T14:56:50;46.31;18.65
70830;SHT30;58451;51.550;7.208;2022-08-25T14:59:18;46.47;18.52
70830;SHT30;58451;51.550;7.208;2022-08-25T15:01:45;46.67;17.63
70830;SHT30;58451;51.550;7.208;2022-08-25T15:04:19;47.22;17.32
70830;SHT30;58451;51.550;7.208;2022-08-25T15:06:58;47.63;17.72
70830;SHT30;58451;51.550;7.208;2022-08-25T15:09:28;47.90;17.24
70830;SHT30;58451;51.550;7.208;2022-08-25T15:11:59;48.23;17.05
70830;SHT30;58451;51.550;7.208;2022-08-25T15:14:25;48.37;17.06
70830;SHT30;58451;51.550;7.208;2022-08-25T15:16:58;48.44;16.86
70830;SHT30;58451;51.550;7.208;2022-08-25T15:19:27;48.66;16.65
70830;SHT30;58451;51.550;7.208;2022-08-25T15:21:55;48.69;16.57
70830;SHT30;58451;51.550;7.208;2022-08-25T15:24:25;48.90;16.26
70830;SHT30;58451;51.550;7.208;2022-08-25T15:26:55;49.18;15.70
70830;SHT30;58451;51.550;7.208;2022-08-25T15:29:28;49.35;16.10
70830;SHT30;58451;51.550;7.208;2022-08-25T15:31:57;49.42;16.23
70830;SHT30;58451;51.550;7.208;2022-08-25T15:34:26;49.94;16.02
70830;SHT30;58451;51.550;7.208;2022-08-25T15:36:55;50.32;15.68
70830;SHT30;58451;51.550;7.208;2022-08-25T15:39:24;50.65;15.39
70830;SHT30;58451;51.550;7.208;2022-08-25T15:41:52;51.02;15.50
70830;SHT30;58451;51.550;7.208;2022-08-25T15:44:19;51.06;15.47
70830;SHT30;58451;51.550;7.208;2022-08-25T15:46:52;51.11;15.13
70830;SHT30;58451;51.550;7.208;2022-08-25T15:49:21;51.26;14.97
70830;SHT30;58451;51.550;7.208;2022-08-25T15:51:50;51.54;14.84
70830;SHT30;58451;51.550;7.208;2022-08-25T15:54:20;51.66;14.77
70830;SHT30;58451;51.550;7.208;2022-08-25T15:56:51;51.67;14.33
70830;SHT30;58451;51.550;7.208;2022-08-25T15:59:20;51.97;14.66
70830;SHT30;58451;51.550;7.208;2022-08-25T16:01:50;52.24;14.80
70830;SHT30;58451;51.550;7.208;2022-08-25T16:04:21;52.35;14.42
70830;SHT30;58451;51.550;7.208;2022-08-25T16:06:50;52.40;13.91
70830;SHT30;58451;51.550;7.208;2022-08-25T16:09:17;52.64;13.71
70830;SHT30;58451;51.550;7.208;2022-08-25T16:11:48;52.91;13.64
70830;SHT30;58451;51.550;7.208;2022-08-25T16:14:23;53.06;14.19
70830;SHT30;58451;51.550;7.208;2022-08-25T16:16:53;53.06;13.60
70830;SHT30;58451;51.550;7.208;2022-08-25T16:19:25;53.06;13.68
70830;SHT30;58451;51.550;7.208;2022-08-25T16:21:54;52.98;13.93
70830;SHT30;58451;51.550;7.208;2022-08-25T16:24:22;52.76;13.98
70830;SHT30;58451;51.550;7.208;2022-08-25T16:26:49;52.43;13.78
70830;SHT30;58451;51.550;7.208;2022-08-25T16:29:17;52.44;14.05
70830;SHT30;58451;51.550;7.208;2022-08-25T16:31:45;52.31;14.15
70830;SHT30;58451;51.550;7.208;2022-08-25T16:34:20;52.33;14.51
70830;SHT30;58451;51.550;7.208;2022-08-25T16:36:53;52.26;14.43
70830;SHT30;58451;51.550;7.208;2022-08-25T16:39:20;52.17;14.46
70830;SHT30;58451;51.550;7.208;2022-08-25T16:41:49;52.16;14.45
70830;SHT30;58451;51.550;7.208;2022-08-25T16:44:18;52.03;14.52
70830;SHT30;58451;51.550;7.208;2022-08-25T16:46:48;51.57;14.77
70830;SHT30;58451;51.550;7.208;2022-08-25T16:49:19;51.22;15.01
70830;SHT30;58451;51.550;7.208;2022-08-25T16:51:50;50.80;15.17
70830;SHT30;58451;51.550;7.208;2022-08-25T16:54:25;50.50;15.23
70830;SHT30;58451;51.550;7.208;2022-08-25T16:57:13;50.23;15.48
70830;SHT30;58451;51.550;7.208;2022-08-25T16:59:40;50.08;15.58
70830;SHT30;58451;51.550;7.208;2022-08-25T17:02:09;49.84;15.61
70830;SHT30;58451;51.550;7.208;2022-08-25T17:04:36;49.44;15.64
70830;SHT30;58451;51.550;7.208;2022-08-25T17:07:03;49.08;15.74
70830;SHT30;58451;51.550;7.208;2022-08-25T17:09:30;48.97;15.91
70830;SHT30;58451;51.550;7.208;2022-08-25T17:11:57;48.85;16.18
70830;SHT30;58451;51.550;7.208;2022-08-25T17:14:24;48.74;16.27
70830;SHT30;58451;51.550;7.208;2022-08-25T17:16:51;48.13;16.64
70830;SHT30;58451;51.550;7.208;2022-08-25T17:19:21;47.65;16.87
70830;SHT30;58451;51.550;7.208;2022-08-25T17:21:51;46.99;17.16
70830;SHT30;58451;51.550;7.208;2022-08-25T17:24:20;45.56;17.91
70830;SHT30;58451;51.550;7.208;2022-08-25T17:26:57;43.77;19.08
70830;SHT30;58451;51.550;7.208;2022-08-25T17:29:27;42.36;19.77
70830;SHT30;58451;51.550;7.208;2022-08-25T17:31:54;41.21;20.68
70830;SHT30;58451;51.550;7.208;2022-08-25T17:34:22;40.27;21.70
70830;SHT30;58451;51.550;7.208;2022-08-25T17:36:49;39.46;22.52
70830;SHT30;58451;51.550;7.208;2022-08-25T17:39:20;38.66;23.01
70830;SHT30;58451;51.550;7.208;2022-08-25T17:41:49;37.95;24.27
70830;SHT30;58451;51.550;7.208;2022-08-25T17:44:17;37.32;25.18
70830;SHT30;58451;51.550;7.208;2022-08-25T17:46:45;36.76;25.43
70830;SHT30;58451;51.550;7.208;2022-08-25T17:49:13;36.25;26.39
70830;SHT30;58451;51.550;7.208;2022-08-25T17:51:43;35.77;26.82
70830;SHT30;58451;51.550;7.208;2022-08-25T17:54:10;35.33;27.79
70830;SHT30;58451;51.550;7.208;2022-08-25T17:56:39;34.88;28.47
70830;SHT30;58451;51.550;7.208;2022-08-25T17:59:06;34.46;28.65
70830;SHT30;58451;51.550;7.208;2022-08-25T18:01:34;34.11;28.98
70830;SHT30;58451;51.550;7.208;2022-08-25T18:04:06;33.78;29.06
70830;SHT30;58451;51.550;7.208;2022-08-25T18:06:45;33.42;29.56
70830;SHT30;58451;51.550;7.208;2022-08-25T18:09:14;33.11;30.22
70830;SHT30;58451;51.550;7.208;2022-08-25T18:11:42;32.80;31.14
70830;SHT30;58451;51.550;7.208;2022-08-25T18:14:11;32.48;32.16
70830;SHT30;58451;51.550;7.208;2022-08-25T18:16:39;32.18;32.21
70830;SHT30;58451;51.550;7.208;2022-08-25T18:19:07;31.89;32.90
70830;SHT30;58451;51.550;7.208;2022-08-25T18:21:36;31.63;32.97
70830;SHT30;58451;51.550;7.208;2022-08-25T18:24:05;31.36;33.01
70830;SHT30;58451;51.550;7.208;2022-08-25T18:26:33;31.15;33.72
70830;SHT30;58451;51.550;7.208;2022-08-25T18:29:00;30.92;33.79
70830;SHT30;58451;51.550;7.208;2022-08-25T18:31:28;30.70;34.53
70830;SHT30;58451;51.550;7.208;2022-08-25T18:33:57;30.50;34.79